createdAt,value
2017-09-21T00:02:06.538Z,99.90
2017-09-21T00:04:32.446Z,99.90
2017-09-21T00:06:58.363Z,99.90
2017-09-21T00:09:24.264Z,99.90
2017-09-21T00:11:50.931Z,99.90
2017-09-21T00:14:16.840Z,99.90
2017-09-21T00:16:42.759Z,99.90
2017-09-21T00:19:08.663Z,99.90
2017-09-21T00:21:35.334Z,99.90
2017-09-21T00:24:01.244Z,99.90
2017-09-21T00:26:27.170Z,99.90
2017-09-21T00:28:53.083Z,99.90
2017-09-21T00:31:19.015Z,99.90
2017-09-21T00:33:44.950Z,99.90
2017-09-21T00:36:10.870Z,99.90
2017-09-21T00:38:36.789Z,99.90
2017-09-21T00:41:02.707Z,99.90
2017-09-21T00:43:29.420Z,99.90
2017-09-21T00:45:55.332Z,99.90
2017-09-21T00:48:21.267Z,99.90
2017-09-21T00:50:47.162Z,99.90
2017-09-21T00:53:13.073Z,99.90
2017-09-21T00:55:39.712Z,99.90
2017-09-21T00:58:05.727Z,99.90
2017-09-21T01:00:32.411Z,99.90
2017-09-21T01:02:58.562Z,99.90
2017-09-21T01:05:24.470Z,99.90
2017-09-21T01:07:50.892Z,99.90
2017-09-21T01:10:16.825Z,99.90
2017-09-21T01:12:42.781Z,99.90
2017-09-21T01:15:08.724Z,99.90
2017-09-21T01:17:36.331Z,99.90
2017-09-21T01:20:02.243Z,99.90
2017-09-21T01:22:28.175Z,99.90
2017-09-21T01:24:54.107Z,99.90
2017-09-21T01:27:20.055Z,99.90
2017-09-21T01:29:46.743Z,99.90
2017-09-21T01:32:12.687Z,99.90
2017-09-21T01:34:38.627Z,99.90
2017-09-21T01:37:04.538Z,99.90
2017-09-21T01:39:30.599Z,99.90
2017-09-21T01:41:56.532Z,99.90
2017-09-21T01:44:22.442Z,99.90
2017-09-21T01:46:48.323Z,99.90
2017-09-21T01:49:14.226Z,99.90
2017-09-21T01:51:40.136Z,99.90
2017-09-21T01:54:06.027Z,99.90
2017-09-21T01:56:31.906Z,99.90
2017-09-21T01:58:57.844Z,99.90
2017-09-21T02:01:23.752Z,99.90
2017-09-21T02:03:50.382Z,99.90
2017-09-21T02:06:16.389Z,99.90
2017-09-21T02:08:42.366Z,99.90
2017-09-21T02:11:08.919Z,99.90
2017-09-21T02:13:34.811Z,99.90
2017-09-21T02:16:00.905Z,99.90
2017-09-21T02:18:26.815Z,99.90
2017-09-21T02:20:52.711Z,99.90
2017-09-21T02:23:18.635Z,99.90
2017-09-21T02:25:44.538Z,99.90
2017-09-21T02:28:10.459Z,99.90
2017-09-21T02:30:36.405Z,99.90
2017-09-21T02:33:02.335Z,99.90
2017-09-21T02:35:28.263Z,99.90
2017-09-21T02:37:54.232Z,99.90
2017-09-21T02:40:20.119Z,99.90
2017-09-21T02:42:46.118Z,99.90
2017-09-21T02:45:12.059Z,99.90
2017-09-21T02:47:38.713Z,99.90
2017-09-21T02:50:04.619Z,99.90
2017-09-21T02:52:30.527Z,99.90
2017-09-21T02:54:56.496Z,99.90
2017-09-21T02:57:22.412Z,99.90
2017-09-21T02:59:48.326Z,99.90
2017-09-21T03:02:14.242Z,99.90
2017-09-21T03:04:40.136Z,99.90
2017-09-21T03:07:06.776Z,99.90
2017-09-21T03:09:33.407Z,99.90
2017-09-21T03:11:59.327Z,99.90
2017-09-21T03:14:25.234Z,99.90
2017-09-21T03:16:51.167Z,99.90
2017-09-21T03:19:17.087Z,99.90
2017-09-21T03:21:43.010Z,99.90
2017-09-21T03:24:08.969Z,99.90
2017-09-21T03:26:34.904Z,99.90
2017-09-21T03:29:00.830Z,99.90
2017-09-21T03:31:26.791Z,99.90
2017-09-21T03:33:52.776Z,99.90
2017-09-21T03:36:18.681Z,99.90
2017-09-21T03:38:44.611Z,99.90
2017-09-21T03:41:10.512Z,99.90
2017-09-21T03:43:36.418Z,99.90
2017-09-21T03:46:02.347Z,99.90
2017-09-21T03:48:28.276Z,99.90
2017-09-21T03:50:54.252Z,99.90
2017-09-21T03:53:20.173Z,99.90
2017-09-21T03:55:46.094Z,99.90
2017-09-21T03:58:11.979Z,99.90
2017-09-21T04:00:37.922Z,99.90
2017-09-21T04:03:03.807Z,99.90
2017-09-21T04:05:29.715Z,99.90
2017-09-21T04:07:55.647Z,99.90
2017-09-21T04:10:21.561Z,99.90
2017-09-21T04:12:47.488Z,99.90
2017-09-21T04:15:13.400Z,99.90
2017-09-21T04:17:40.335Z,99.90
2017-09-21T04:20:06.242Z,99.90
2017-09-21T04:22:32.243Z,99.90
2017-09-21T04:24:59.131Z,99.90
2017-09-21T04:27:25.031Z,99.90
2017-09-21T04:29:51.566Z,99.90
2017-09-21T04:32:17.479Z,99.90
2017-09-21T04:34:43.404Z,99.90
2017-09-21T04:37:09.375Z,99.90
2017-09-21T04:39:35.308Z,99.90
2017-09-21T04:42:01.262Z,99.90
2017-09-21T04:44:27.219Z,99.90
2017-09-21T04:46:53.120Z,99.90
2017-09-21T04:49:19.169Z,99.90
2017-09-21T04:51:45.165Z,99.90
2017-09-21T04:54:11.078Z,99.90
2017-09-21T04:56:37.034Z,99.90
2017-09-21T04:59:03.000Z,99.90
2017-09-21T05:01:29.636Z,99.90
2017-09-21T05:03:56.509Z,99.90
2017-09-21T05:06:22.448Z,99.90
2017-09-21T05:08:48.358Z,99.90
2017-09-21T05:11:14.323Z,99.90
2017-09-21T05:13:40.294Z,99.90
2017-09-21T05:16:06.251Z,99.90
2017-09-21T05:18:32.174Z,99.90
2017-09-21T05:20:58.100Z,99.90
2017-09-21T05:23:24.021Z,99.90
2017-09-21T05:25:49.931Z,99.90
2017-09-21T05:28:15.844Z,99.90
2017-09-21T05:30:41.771Z,99.90
2017-09-21T05:33:07.688Z,99.90
2017-09-21T05:35:33.580Z,99.90
2017-09-21T05:37:59.559Z,99.90
2017-09-21T05:40:25.483Z,99.90
2017-09-21T05:42:52.147Z,99.90
2017-09-21T05:45:18.075Z,99.90
2017-09-21T05:47:43.984Z,99.90
2017-09-21T05:50:09.905Z,99.90
2017-09-21T05:52:35.828Z,99.90
2017-09-21T05:55:01.747Z,99.90
2017-09-21T05:57:27.695Z,99.90
2017-09-21T05:59:53.601Z,99.90
2017-09-21T06:02:19.509Z,99.90
2017-09-21T06:04:45.433Z,99.90
2017-09-21T06:07:11.351Z,99.90
2017-09-21T06:09:37.362Z,99.90
2017-09-21T06:12:03.374Z,99.90
2017-09-21T06:14:30.148Z,99.90
2017-09-21T06:16:56.102Z,99.90
2017-09-21T06:19:22.028Z,99.90
2017-09-21T06:21:47.984Z,99.90
2017-09-21T06:24:13.902Z,99.90
2017-09-21T06:26:40.599Z,99.90
2017-09-21T06:29:06.510Z,99.90
2017-09-21T06:31:32.439Z,99.90
2017-09-21T06:33:58.355Z,99.90
2017-09-21T06:36:24.292Z,99.90
2017-09-21T06:38:50.211Z,99.90
2017-09-21T06:41:16.143Z,99.90
2017-09-21T06:43:42.059Z,99.90
2017-09-21T06:46:08.038Z,99.90
2017-09-21T06:48:33.954Z,99.90
2017-09-21T06:50:59.892Z,99.90
2017-09-21T06:53:25.778Z,99.90
2017-09-21T06:55:51.700Z,99.90
2017-09-21T06:58:17.652Z,99.90
2017-09-21T07:00:43.572Z,99.90
2017-09-21T07:03:09.500Z,99.90
2017-09-21T07:05:35.411Z,99.90
2017-09-21T07:08:01.368Z,99.90
2017-09-21T07:10:28.038Z,99.90
2017-09-21T07:12:53.954Z,99.90
2017-09-21T07:15:19.854Z,99.90
2017-09-21T07:17:46.491Z,99.90
2017-09-21T07:20:13.151Z,99.90
2017-09-21T07:22:39.061Z,99.90
2017-09-21T07:25:04.982Z,99.90
2017-09-21T07:27:31.847Z,99.90
2017-09-21T07:29:57.783Z,99.90
2017-09-21T07:32:23.732Z,99.90
2017-09-21T07:34:49.671Z,99.90
2017-09-21T07:37:15.579Z,99.90
2017-09-21T07:39:41.510Z,99.90
2017-09-21T07:42:08.256Z,99.90
2017-09-21T07:44:34.162Z,99.90
2017-09-21T07:47:00.096Z,99.90
2017-09-21T07:49:26.166Z,99.90
2017-09-21T07:51:52.085Z,99.90
2017-09-21T07:54:18.037Z,99.90
2017-09-21T07:56:43.955Z,99.90
2017-09-21T07:59:09.861Z,99.90
2017-09-21T08:01:35.779Z,99.90
2017-09-21T08:04:01.687Z,99.90
2017-09-21T08:06:27.620Z,99.90
2017-09-21T08:08:53.623Z,99.90
2017-09-21T08:11:19.588Z,99.90
2017-09-21T08:13:47.580Z,99.90
2017-09-21T08:16:13.505Z,99.90
2017-09-21T08:18:39.403Z,99.90
2017-09-21T08:21:05.379Z,99.90
2017-09-21T08:23:31.303Z,99.90
2017-09-21T08:25:57.355Z,99.90
2017-09-21T08:28:23.270Z,99.90
2017-09-21T08:30:49.823Z,99.90
2017-09-21T08:33:16.510Z,99.90
2017-09-21T08:35:42.453Z,99.90
2017-09-21T08:38:08.473Z,99.90
2017-09-21T08:40:34.447Z,99.90
2017-09-21T08:43:01.131Z,99.90
2017-09-21T08:45:27.083Z,99.90
2017-09-21T08:47:55.516Z,99.90
2017-09-21T08:50:22.245Z,99.90
2017-09-21T08:52:48.207Z,99.90
2017-09-21T08:55:14.123Z,99.90
2017-09-21T08:57:40.049Z,99.90
2017-09-21T09:00:06.001Z,99.90
2017-09-21T09:02:32.672Z,99.90
2017-09-21T09:04:58.696Z,99.90
2017-09-21T09:07:24.644Z,99.90
2017-09-21T09:09:50.569Z,99.90
2017-09-21T09:12:16.824Z,99.90
2017-09-21T09:14:42.743Z,99.90
2017-09-21T09:17:09.480Z,99.90
2017-09-21T09:19:35.407Z,99.90
2017-09-21T09:22:02.103Z,99.90
2017-09-21T09:24:28.003Z,99.90
2017-09-21T09:26:53.936Z,99.90
2017-09-21T09:29:19.834Z,99.90
2017-09-21T09:31:45.819Z,99.90
2017-09-21T09:34:12.541Z,99.90
2017-09-21T09:36:38.619Z,99.90
2017-09-21T09:39:05.337Z,99.90
2017-09-21T09:41:31.240Z,99.90
2017-09-21T09:43:57.894Z,99.90
2017-09-21T09:46:23.801Z,99.90
2017-09-21T09:48:49.707Z,99.90
2017-09-21T09:51:15.642Z,99.90
2017-09-21T09:53:42.294Z,99.90
2017-09-21T09:56:08.291Z,99.90
2017-09-21T09:58:34.214Z,99.90
2017-09-21T10:01:00.160Z,99.90
2017-09-21T10:03:26.115Z,99.90
2017-09-21T10:05:52.043Z,99.90
2017-09-21T10:08:17.977Z,99.90
2017-09-21T10:10:43.901Z,99.90
2017-09-21T10:13:09.814Z,99.90
2017-09-21T10:15:35.731Z,99.90
2017-09-21T10:18:01.736Z,99.90
2017-09-21T10:20:27.635Z,99.90
2017-09-21T10:22:53.565Z,99.90
2017-09-21T10:25:19.471Z,99.90
2017-09-21T10:27:45.427Z,99.90
2017-09-21T10:30:11.344Z,99.90
2017-09-21T10:32:38.124Z,99.90
2017-09-21T10:35:04.035Z,99.90
2017-09-21T10:37:29.959Z,99.90
2017-09-21T10:39:55.883Z,99.90
2017-09-21T10:42:22.520Z,99.90
2017-09-21T10:44:49.154Z,99.90
2017-09-21T10:47:15.049Z,99.90
2017-09-21T10:49:40.959Z,99.90
2017-09-21T10:52:06.937Z,99.90
2017-09-21T10:54:32.898Z,99.90
2017-09-21T10:56:58.862Z,99.70
2017-09-21T10:59:25.563Z,98.60
2017-09-21T11:01:51.556Z,98.60
2017-09-21T11:04:17.483Z,98.60
2017-09-21T11:06:43.493Z,98.50
2017-09-21T11:09:09.528Z,99.10
2017-09-21T11:11:35.449Z,99.10
2017-09-21T11:14:01.375Z,99.10
2017-09-21T11:16:27.289Z,98.30
2017-09-21T11:18:53.314Z,97.30
2017-09-21T11:21:20.360Z,96.60
2017-09-21T11:23:46.345Z,95.90
2017-09-21T11:26:13.470Z,95.70
2017-09-21T11:28:39.390Z,95.70
2017-09-21T11:31:05.329Z,95.70
2017-09-21T11:33:31.313Z,94.90
2017-09-21T11:35:57.247Z,94.70
2017-09-21T11:38:23.191Z,94.00
2017-09-21T11:40:49.880Z,94.40
2017-09-21T11:43:15.820Z,94.30
2017-09-21T11:45:41.792Z,94.00
2017-09-21T11:48:07.755Z,93.20
2017-09-21T11:50:33.665Z,92.00
2017-09-21T11:52:59.596Z,92.80
2017-09-21T11:55:25.715Z,92.30
2017-09-21T11:57:51.702Z,90.90
2017-09-21T12:00:17.623Z,91.60
2017-09-21T12:02:43.604Z,91.50
2017-09-21T12:05:09.592Z,92.10
2017-09-21T12:07:35.531Z,92.10
2017-09-21T12:10:01.541Z,90.90
2017-09-21T12:12:27.525Z,90.30
2017-09-21T12:14:54.283Z,89.30
2017-09-21T12:17:20.234Z,87.20
2017-09-21T12:19:46.165Z,86.40
2017-09-21T12:22:12.828Z,86.20
2017-09-21T12:24:38.849Z,83.80
2017-09-21T12:27:05.524Z,82.20
2017-09-21T12:29:31.459Z,82.10
2017-09-21T12:31:57.425Z,82.30
2017-09-21T12:34:23.352Z,82.00
2017-09-21T12:36:50.190Z,80.30
2017-09-21T12:39:17.933Z,82.40
2017-09-21T12:41:44.878Z,82.00
2017-09-21T12:44:10.876Z,81.90
2017-09-21T12:46:37.143Z,78.60
2017-09-21T12:49:03.124Z,77.40
2017-09-21T12:51:30.117Z,76.70
2017-09-21T12:53:56.806Z,79.60
2017-09-21T12:56:22.764Z,79.40
2017-09-21T12:58:48.707Z,78.00
2017-09-21T13:01:14.687Z,74.40
2017-09-21T13:03:40.699Z,72.80
2017-09-21T13:06:07.408Z,72.80
2017-09-21T13:08:33.367Z,71.70
2017-09-21T13:10:59.384Z,71.30
2017-09-21T13:13:25.688Z,69.10
2017-09-21T13:15:51.655Z,68.80
2017-09-21T13:18:17.618Z,68.60
2017-09-21T13:20:44.194Z,69.50
2017-09-21T13:23:10.143Z,68.80
2017-09-21T13:25:36.864Z,66.40
2017-09-21T13:28:03.557Z,66.20
2017-09-21T13:30:29.775Z,67.60
2017-09-21T13:32:55.767Z,67.00
2017-09-21T13:35:21.699Z,67.70
2017-09-21T13:37:47.655Z,66.70
2017-09-21T13:40:13.631Z,65.60
2017-09-21T13:42:39.559Z,65.20
2017-09-21T13:45:05.623Z,64.20
2017-09-21T13:47:31.576Z,65.00
2017-09-21T13:49:57.512Z,63.70
2017-09-21T13:52:23.464Z,64.00
2017-09-21T13:54:49.383Z,63.50
2017-09-21T13:57:15.309Z,62.20
2017-09-21T13:59:41.266Z,61.70
2017-09-21T14:02:07.215Z,62.80
2017-09-21T14:04:33.216Z,62.70
2017-09-21T14:06:59.418Z,60.40
2017-09-21T14:09:25.386Z,60.00
2017-09-21T14:11:51.310Z,60.10
2017-09-21T14:14:17.258Z,59.70
2017-09-21T14:16:43.182Z,59.00
2017-09-21T14:19:09.091Z,59.20
2017-09-21T14:21:35.816Z,59.40
2017-09-21T14:24:01.825Z,59.40
2017-09-21T14:26:27.752Z,59.90
2017-09-21T14:28:53.679Z,58.60
2017-09-21T14:31:19.619Z,58.00
2017-09-21T14:33:46.291Z,57.20
2017-09-21T14:36:12.306Z,57.00
2017-09-21T14:38:38.246Z,58.70
2017-09-21T14:41:04.515Z,57.30
2017-09-21T14:43:31.199Z,57.70
2017-09-21T14:45:57.118Z,57.60
2017-09-21T14:48:23.113Z,57.50
2017-09-21T14:50:49.021Z,55.90
2017-09-21T14:53:15.691Z,54.70
2017-09-21T14:55:42.379Z,54.70
2017-09-21T14:58:08.449Z,54.40
2017-09-21T15:00:34.555Z,54.50
2017-09-21T15:03:00.499Z,54.40
2017-09-21T15:05:26.423Z,53.50
2017-09-21T15:07:52.377Z,55.30
2017-09-21T15:10:18.312Z,56.20
2017-09-21T15:12:44.284Z,56.60
2017-09-21T15:15:10.266Z,56.30
2017-09-21T15:17:37.151Z,55.20
2017-09-21T15:20:03.121Z,55.20
2017-09-21T15:22:29.051Z,55.10
2017-09-21T15:24:55.938Z,54.50
2017-09-21T15:27:22.018Z,54.50
2017-09-21T15:29:47.991Z,54.60
2017-09-21T15:32:13.952Z,55.00
2017-09-21T15:34:39.887Z,54.80
2017-09-21T15:37:06.607Z,55.00
2017-09-21T15:39:33.327Z,54.60
2017-09-21T15:41:59.269Z,54.50
2017-09-21T15:44:25.262Z,55.00
2017-09-21T15:46:51.173Z,55.20
2017-09-21T15:49:17.160Z,55.50
2017-09-21T15:51:43.300Z,55.00
2017-09-21T15:54:09.280Z,55.50
2017-09-21T15:56:35.218Z,56.00
2017-09-21T15:59:01.159Z,57.10
2017-09-21T16:01:27.132Z,56.50
2017-09-21T16:03:53.079Z,55.40
2017-09-21T16:06:19.004Z,55.70
2017-09-21T16:08:45.606Z,56.90
2017-09-21T16:11:11.582Z,56.70
2017-09-21T16:13:37.504Z,58.60
2017-09-21T16:16:03.467Z,57.80
2017-09-21T16:18:29.908Z,57.90
2017-09-21T16:20:56.671Z,59.20
2017-09-21T16:23:23.158Z,59.80
2017-09-21T16:25:49.140Z,60.60
2017-09-21T16:28:15.391Z,59.60
2017-09-21T16:30:41.387Z,61.00
2017-09-21T16:33:07.332Z,63.20
2017-09-21T16:35:33.419Z,64.00
2017-09-21T16:37:59.559Z,63.70
2017-09-21T16:40:25.599Z,64.50
2017-09-21T16:42:51.475Z,66.40
2017-09-21T16:45:17.441Z,66.60
2017-09-21T16:47:44.041Z,67.00
2017-09-21T16:50:09.992Z,67.40
2017-09-21T16:52:36.014Z,68.30
2017-09-21T16:55:02.025Z,69.70
2017-09-21T16:57:28.021Z,71.00
2017-09-21T16:59:54.022Z,71.70
2017-09-21T17:02:20.002Z,72.00
2017-09-21T17:04:45.961Z,73.40
2017-09-21T17:07:11.939Z,74.80
2017-09-21T17:09:37.964Z,76.00
2017-09-21T17:12:03.914Z,78.00
2017-09-21T17:14:29.836Z,79.10
2017-09-21T17:16:56.031Z,79.50
2017-09-21T17:19:21.983Z,79.90
2017-09-21T17:21:47.914Z,80.40
2017-09-21T17:24:13.951Z,81.80
2017-09-21T17:26:40.079Z,83.10
2017-09-21T17:29:06.069Z,84.60
2017-09-21T17:31:32.076Z,85.80
2017-09-21T17:33:57.970Z,85.30
2017-09-21T17:36:24.085Z,86.40
2017-09-21T17:38:51.631Z,86.30
2017-09-21T17:41:17.597Z,87.10
2017-09-21T17:43:43.516Z,86.70
2017-09-21T17:46:09.540Z,86.70
2017-09-21T17:48:36.280Z,87.90
2017-09-21T17:51:02.196Z,88.70
2017-09-21T17:53:28.127Z,88.90
2017-09-21T17:55:54.080Z,89.40
2017-09-21T17:58:20.054Z,90.10
2017-09-21T18:00:45.986Z,90.10
2017-09-21T18:03:11.930Z,90.20
2017-09-21T18:05:38.048Z,90.40
2017-09-21T18:08:03.991Z,90.50
2017-09-21T18:10:29.910Z,91.20
2017-09-21T18:12:56.616Z,91.40
2017-09-21T18:15:22.589Z,91.40
2017-09-21T18:17:49.307Z,91.90
2017-09-21T18:20:15.226Z,91.80
2017-09-21T18:22:41.167Z,92.00
2017-09-21T18:25:08.095Z,92.90
2017-09-21T18:27:34.081Z,92.90
2017-09-21T18:30:00.083Z,93.40
2017-09-21T18:32:27.690Z,93.70
2017-09-21T18:34:53.746Z,93.60
2017-09-21T18:37:20.805Z,93.80
2017-09-21T18:39:46.854Z,93.90
2017-09-21T18:42:13.007Z,94.00
2017-09-21T18:44:39.375Z,94.20
2017-09-21T18:47:05.477Z,94.30
2017-09-21T18:49:31.583Z,94.40
2017-09-21T18:51:57.667Z,94.70
2017-09-21T18:54:23.957Z,94.90
2017-09-21T18:56:51.231Z,95.20
2017-09-21T18:59:18.291Z,94.90
2017-09-21T19:01:44.368Z,94.90
2017-09-21T19:04:10.489Z,95.10
2017-09-21T19:06:37.142Z,95.60
2017-09-21T19:09:03.880Z,96.00
2017-09-21T19:11:30.194Z,96.20
2017-09-21T19:14:03.181Z,96.00
2017-09-21T19:16:29.532Z,95.60
2017-09-21T19:18:55.718Z,96.00
2017-09-21T19:21:21.861Z,96.20
2017-09-21T19:23:47.985Z,96.30
2017-09-21T19:26:14.088Z,96.30
2017-09-21T19:28:40.198Z,96.20
2017-09-21T19:31:06.209Z,96.30
2017-09-21T19:33:32.459Z,96.40
2017-09-21T19:38:31.680Z,96.60
2017-09-21T19:40:58.412Z,96.80
2017-09-21T19:43:24.620Z,96.70
2017-09-21T19:45:50.662Z,96.90
2017-09-21T19:48:16.688Z,96.90
2017-09-21T19:50:42.612Z,97.10
2017-09-21T19:53:08.535Z,97.10
2017-09-21T19:55:34.739Z,97.20
2017-09-21T19:58:00.679Z,97.30
2017-09-21T20:00:26.739Z,97.60
2017-09-21T20:02:52.824Z,97.70
2017-09-21T20:05:18.783Z,98.00
2017-09-21T20:07:44.721Z,98.20
2017-09-21T20:10:10.639Z,98.20
2017-09-21T20:12:37.365Z,98.40
2017-09-21T20:15:03.379Z,98.40
2017-09-21T20:17:29.357Z,98.60
2017-09-21T20:19:55.428Z,98.60
2017-09-21T20:22:21.493Z,98.60
2017-09-21T20:24:48.063Z,98.60
2017-09-21T20:27:14.165Z,99.10
2017-09-21T20:29:40.083Z,99.30
2017-09-21T20:32:06.036Z,99.40
2017-09-21T20:34:35.510Z,99.60
2017-09-21T20:37:01.480Z,99.80
2017-09-21T20:39:27.434Z,99.90
2017-09-21T20:41:53.359Z,99.80
2017-09-21T20:44:19.308Z,99.80
2017-09-21T20:46:45.199Z,99.90
2017-09-21T20:49:11.127Z,99.90
2017-09-21T20:51:37.034Z,99.90
2017-09-21T20:54:02.949Z,99.90
2017-09-21T20:56:29.687Z,99.90
2017-09-21T20:58:55.777Z,99.90
2017-09-21T21:01:21.720Z,99.90
2017-09-21T21:03:48.540Z,99.90
2017-09-21T21:06:14.462Z,99.90
2017-09-21T21:08:40.400Z,99.90
2017-09-21T21:11:06.355Z,99.90
2017-09-21T21:13:32.292Z,99.90
2017-09-21T21:15:58.461Z,99.90
2017-09-21T21:18:24.393Z,99.90
2017-09-21T21:20:51.065Z,99.90
2017-09-21T21:23:16.975Z,99.90
2017-09-21T21:25:43.172Z,99.90
2017-09-21T21:28:09.086Z,99.90
2017-09-21T21:30:34.982Z,99.90
2017-09-21T21:33:00.929Z,99.90
2017-09-21T21:35:27.492Z,99.90
2017-09-21T21:37:54.322Z,99.90
2017-09-21T21:40:21.037Z,99.90
2017-09-21T21:42:46.990Z,99.90
2017-09-21T21:45:13.663Z,99.90
2017-09-21T21:47:39.567Z,99.90
2017-09-21T21:50:05.472Z,99.90
2017-09-21T21:52:31.378Z,99.90
2017-09-21T21:54:57.291Z,99.90
2017-09-21T21:57:23.944Z,99.90
2017-09-21T21:59:50.597Z,99.90
2017-09-21T22:02:16.524Z,99.90
2017-09-21T22:04:42.446Z,99.90
2017-09-21T22:07:08.351Z,99.90
2017-09-21T22:09:35.016Z,99.90
2017-09-21T22:12:00.923Z,99.90
2017-09-21T22:14:26.934Z,99.90
2017-09-21T22:16:53.743Z,99.90
2017-09-21T22:19:19.645Z,99.90
2017-09-21T22:21:45.571Z,99.90
2017-09-21T22:24:11.511Z,99.90
2017-09-21T22:26:38.173Z,99.90
2017-09-21T22:29:04.084Z,99.90
2017-09-21T22:31:30.028Z,99.90
2017-09-21T22:33:55.947Z,99.90
2017-09-21T22:36:23.196Z,99.90
2017-09-21T22:38:49.109Z,99.90
2017-09-21T22:41:15.055Z,99.90
2017-09-21T22:43:41.752Z,99.90
2017-09-21T22:46:08.451Z,99.90
2017-09-21T22:48:34.343Z,99.90
2017-09-21T22:51:00.263Z,99.90
2017-09-21T22:53:26.187Z,99.90
2017-09-21T22:55:52.107Z,99.90
2017-09-21T22:58:18.058Z,99.90
2017-09-21T23:00:43.990Z,99.90
2017-09-21T23:03:09.913Z,99.90
2017-09-21T23:05:35.816Z,99.90
2017-09-21T23:08:01.737Z,99.90
2017-09-21T23:10:27.634Z,99.90
2017-09-21T23:12:53.550Z,99.90
2017-09-21T23:15:19.452Z,99.90
2017-09-21T23:17:45.367Z,99.90
2017-09-21T23:20:11.292Z,99.90
2017-09-21T23:22:37.244Z,99.90
2017-09-21T23:25:03.184Z,99.90
2017-09-21T23:27:29.140Z,99.90
2017-09-21T23:29:55.072Z,99.90
2017-09-21T23:32:21.000Z,99.90
2017-09-21T23:34:46.919Z,99.90
2017-09-21T23:37:12.843Z,99.90
2017-09-21T23:39:38.783Z,99.90
2017-09-21T23:42:04.763Z,99.90
2017-09-21T23:44:30.722Z,99.90
2017-09-21T23:46:57.527Z,99.90
2017-09-21T23:49:23.445Z,99.90
2017-09-21T23:51:50.115Z,99.90
2017-09-21T23:54:16.021Z,99.90
2017-09-21T23:56:42.258Z,99.90
2017-09-21T23:59:08.187Z,99.90
